sensor_id;sensor_type;location;lat;lon;timestamp;pressure;altitude;pressure_sealevel;temperature;humidity
10988;BME280;5547;42.672;23.230;2023-11-21T00:00:47;93018.47;;;1.20;100.00
10988;BME280;5547;42.672;23.230;2023-11-21T00:03:47;93028.78;;;1.32;100.00
10988;BME280;5547;42.672;23.230;2023-11-21T00:06:48;92946.59;;;0.91;100.00
10988;BME280;5547;42.672;23.230;2023-11-21T00:09:49;93021.34;;;1.38;100.00
10988;BME280;5547;42.672;23.230;2023-11-21T00:12:49;93014.66;;;1.14;100.00
10988;BME280;5547;42.672;23.230;2023-11-21T00:15:49;93032.19;;;1.13;100.00
10988;BME280;5547;42.672;23.230;2023-11-21T00:18:50;92975.91;;;0.77;100.00
10988;BME280;5547;42.672;23.230;2023-11-21T00:21:51;93039.31;;;1.13;100.00
10988;BME280;5547;42.672;23.230;2023-11-21T00:24:51;93012.25;;;1.05;100.00
10988;BME280;5547;42.672;23.230;2023-11-21T00:27:52;93012.25;;;1.05;100.00
10988;BME280;5547;42.672;23.230;2023-11-21T00:30:54;93019.25;;;1.20;100.00
10988;BME280;5547;42.672;23.230;2023-11-21T00:33:54;93023.06;;;1.26;100.00
10988;BME280;5547;42.672;23.230;2023-11-21T00:36:55;93026.38;;;1.23;100.00
10988;BME280;5547;42.672;23.230;2023-11-21T00:39:55;93030.09;;;1.22;100.00
10988;BME280;5547;42.672;23.230;2023-11-21T00:42:56;93031.22;;;1.21;100.00
10988;BME280;5547;42.672;23.230;2023-11-21T00:45:56;92997.00;;;0.88;100.00
10988;BME280;5547;42.672;23.230;2023-11-21T00:48:57;93022.63;;;0.98;100.00
10988;BME280;5547;42.672;23.230;2023-11-21T00:51:57;92990.91;;;0.80;100.00
10988;BME280;5547;42.672;23.230;2023-11-21T00:54:58;92956.72;;;0.46;100.00
10988;BME280;5547;42.672;23.230;2023-11-21T00:58:00;92983.88;;;0.61;100.00
10988;BME280;5547;42.672;23.230;2023-11-21T01:01:03;92877.16;;;-0.18;100.00
10988;BME280;5547;42.672;23.230;2023-11-21T01:04:04;92939.78;;;0.17;100.00
10988;BME280;5547;42.672;23.230;2023-11-21T01:07:05;93007.44;;;0.61;100.00
10988;BME280;5547;42.672;23.230;2023-11-21T01:10:06;92983.13;;;0.37;100.00
10988;BME280;5547;42.672;23.230;2023-11-21T01:13:07;92996.59;;;0.39;100.00
10988;BME280;5547;42.672;23.230;2023-11-21T01:16:08;92994.38;;;0.41;100.00
10988;BME280;5547;42.672;23.230;2023-11-21T01:19:09;92999.91;;;0.36;100.00
10988;BME280;5547;42.672;23.230;2023-11-21T01:22:09;93011.19;;;0.40;100.00
10988;BME280;5547;42.672;23.230;2023-11-21T01:25:12;93001.47;;;0.41;100.00
10988;BME280;5547;42.672;23.230;2023-11-21T01:28:14;92999.38;;;0.27;100.00
10988;BME280;5547;42.672;23.230;2023-11-21T01:31:15;92977.78;;;0.11;100.00
10988;BME280;5547;42.672;23.230;2023-11-21T01:34:15;93000.19;;;0.31;100.00
10988;BME280;5547;42.672;23.230;2023-11-21T01:37:16;92968.84;;;-0.08;100.00
10988;BME280;5547;42.672;23.230;2023-11-21T01:40:17;92934.19;;;-0.44;100.00
10988;BME280;5547;42.672;23.230;2023-11-21T01:43:17;93013.75;;;0.17;100.00
10988;BME280;5547;42.672;23.230;2023-11-21T01:46:18;92984.88;;;-0.09;100.00
10988;BME280;5547;42.672;23.230;2023-11-21T01:49:19;92983.56;;;0.01;100.00
10988;BME280;5547;42.672;23.230;2023-11-21T01:52:20;92985.28;;;-0.07;100.00
10988;BME280;5547;42.672;23.230;2023-11-21T01:55:21;92989.13;;;-0.01;100.00
10988;BME280;5547;42.672;23.230;2023-11-21T01:58:22;92994.03;;;0.01;100.00
10988;BME280;5547;42.672;23.230;2023-11-21T02:01:22;92983.44;;;-0.07;100.00
10988;BME280;5547;42.672;23.230;2023-11-21T02:04:23;92968.03;;;-0.31;100.00
10988;BME280;5547;42.672;23.230;2023-11-21T02:07:23;92999.03;;;-0.10;100.00
10988;BME280;5547;42.672;23.230;2023-11-21T02:10:24;93006.00;;;-0.18;100.00
10988;BME280;5547;42.672;23.230;2023-11-21T02:13:24;92995.34;;;-0.09;100.00
10988;BME280;5547;42.672;23.230;2023-11-21T02:16:25;92986.59;;;-0.17;100.00
10988;BME280;5547;42.672;23.230;2023-11-21T02:19:25;92962.22;;;-0.21;100.00
10988;BME280;5547;42.672;23.230;2023-11-21T02:22:30;92987.34;;;0.03;100.00
10988;BME280;5547;42.672;23.230;2023-11-21T02:25:32;92992.50;;;-0.01;100.00
10988;BME280;5547;42.672;23.230;2023-11-21T02:28:33;92983.56;;;0.01;100.00
10988;BME280;5547;42.672;23.230;2023-11-21T02:31:33;92990.16;;;-0.06;100.00
10988;BME280;5547;42.672;23.230;2023-11-21T02:34:34;92977.19;;;-0.02;100.00
10988;BME280;5547;42.672;23.230;2023-11-21T02:37:35;92879.59;;;-0.88;100.00
10988;BME280;5547;42.672;23.230;2023-11-21T02:40:35;92975.03;;;-0.35;100.00
10988;BME280;5547;42.672;23.230;2023-11-21T02:43:35;92989.47;;;-0.22;100.00
10988;BME280;5547;42.672;23.230;2023-11-21T02:46:38;92993.72;;;-0.33;100.00
10988;BME280;5547;42.672;23.230;2023-11-21T02:49:40;92988.22;;;-0.28;100.00
10988;BME280;5547;42.672;23.230;2023-11-21T02:52:40;92990.38;;;-0.34;100.00
10988;BME280;5547;42.672;23.230;2023-11-21T02:55:41;92952.16;;;-0.58;100.00
10988;BME280;5547;42.672;23.230;2023-11-21T02:58:42;92981.28;;;-0.40;100.00
10988;BME280;5547;42.672;23.230;2023-11-21T03:01:44;92981.88;;;-0.47;100.00
10988;BME280;5547;42.672;23.230;2023-11-21T03:04:44;92970.97;;;-0.33;100.00
10988;BME280;5547;42.672;23.230;2023-11-21T03:07:44;92965.22;;;-0.23;100.00
10988;BME280;5547;42.672;23.230;2023-11-21T03:10:45;92936.09;;;-0.60;100.00
10988;BME280;5547;42.672;23.230;2023-11-21T03:13:45;92965.69;;;-0.36;100.00
10988;BME280;5547;42.672;23.230;2023-11-21T03:16:46;92967.75;;;-0.46;100.00
10988;BME280;5547;42.672;23.230;2023-11-21T03:19:46;92980.66;;;-0.33;100.00
10988;BME280;5547;42.672;23.230;2023-11-21T03:22:46;92959.91;;;-0.46;100.00
10988;BME280;5547;42.672;23.230;2023-11-21T03:25:47;92991.75;;;-0.01;100.00
10988;BME280;5547;42.672;23.230;2023-11-21T03:28:47;92955.28;;;-0.33;100.00
10988;BME280;5547;42.672;23.230;2023-11-21T03:31:48;92990.78;;;-0.12;100.00
10988;BME280;5547;42.672;23.230;2023-11-21T03:34:56;92976.22;;;-0.13;100.00
10988;BME280;5547;42.672;23.230;2023-11-21T03:37:56;92987.69;;;0.02;100.00
10988;BME280;5547;42.672;23.230;2023-11-21T03:40:57;92977.97;;;0.02;100.00
10988;BME280;5547;42.672;23.230;2023-11-21T03:43:57;92846.88;;;-0.81;100.00
10988;BME280;5547;42.672;23.230;2023-11-21T03:46:57;92884.00;;;-0.53;100.00
10988;BME280;5547;42.672;23.230;2023-11-21T03:49:58;92958.09;;;0.17;100.00
10988;BME280;5547;42.672;23.230;2023-11-21T03:52:58;92945.63;;;0.10;100.00
10988;BME280;5547;42.672;23.230;2023-11-21T03:55:59;92948.78;;;0.19;100.00
10988;BME280;5547;42.672;23.230;2023-11-21T03:59:01;92927.75;;;0.12;100.00
10988;BME280;5547;42.672;23.230;2023-11-21T04:02:03;92940.19;;;0.19;100.00
10988;BME280;5547;42.672;23.230;2023-11-21T04:05:04;92906.09;;;-0.08;100.00
10988;BME280;5547;42.672;23.230;2023-11-21T04:08:05;92960.75;;;0.20;100.00
10988;BME280;5547;42.672;23.230;2023-11-21T04:11:05;92933.41;;;-0.05;100.00
10988;BME280;5547;42.672;23.230;2023-11-21T04:14:06;92946.50;;;0.18;100.00
10988;BME280;5547;42.672;23.230;2023-11-21T04:17:06;92828.47;;;-0.69;100.00
10988;BME280;5547;42.672;23.230;2023-11-21T04:20:08;92951.75;;;0.18;100.00
10988;BME280;5547;42.672;23.230;2023-11-21T04:23:11;92937.88;;;-0.06;100.00
10988;BME280;5547;42.672;23.230;2023-11-21T04:26:13;92915.88;;;-0.24;100.00
10988;BME280;5547;42.672;23.230;2023-11-21T04:29:14;92965.81;;;0.10;100.00
10988;BME280;5547;42.672;23.230;2023-11-21T04:32:14;92969.38;;;0.02;100.00
10988;BME280;5547;42.672;23.230;2023-11-21T04:35:15;92965.59;;;-0.01;100.00
10988;BME280;5547;42.672;23.230;2023-11-21T04:38:15;92909.50;;;-0.46;100.00
10988;BME280;5547;42.672;23.230;2023-11-21T04:41:16;92959.13;;;-0.07;100.00
10988;BME280;5547;42.672;23.230;2023-11-21T04:44:16;92958.75;;;-0.09;100.00
10988;BME280;5547;42.672;23.230;2023-11-21T04:47:17;92938.81;;;-0.37;100.00
10988;BME280;5547;42.672;23.230;2023-11-21T04:50:19;92963.75;;;-0.20;100.00
10988;BME280;5547;42.672;23.230;2023-11-21T04:53:20;92970.78;;;-0.24;100.00
10988;BME280;5547;42.672;23.230;2023-11-21T04:56:20;92905.38;;;-0.67;100.00
10988;BME280;5547;42.672;23.230;2023-11-21T04:59:21;92965.88;;;-0.26;100.00
10988;BME280;5547;42.672;23.230;2023-11-21T05:02:24;92974.91;;;-0.23;100.00
10988;BME280;5547;42.672;23.230;2023-11-21T05:05:25;92980.19;;;-0.19;100.00
10988;BME280;5547;42.672;23.230;2023-11-21T05:08:25;92967.53;;;-0.17;100.00
10988;BME280;5547;42.672;23.230;2023-11-21T05:11:27;92963.69;;;-0.04;100.00
10988;BME280;5547;42.672;23.230;2023-11-21T05:14:27;92958.94;;;0.02;100.00
10988;BME280;5547;42.672;23.230;2023-11-21T05:17:28;92934.19;;;-0.05;100.00
10988;BME280;5547;42.672;23.230;2023-11-21T05:20:28;92934.22;;;-0.01;100.00
10988;BME280;5547;42.672;23.230;2023-11-21T05:23:28;92953.16;;;0.12;100.00
10988;BME280;5547;42.672;23.230;2023-11-21T05:26:29;92898.47;;;-0.16;100.00
10988;BME280;5547;42.672;23.230;2023-11-21T05:29:29;92967.00;;;0.35;100.00
10988;BME280;5547;42.672;23.230;2023-11-21T05:32:30;92925.63;;;-0.02;100.00
10988;BME280;5547;42.672;23.230;2023-11-21T05:35:30;92947.91;;;0.12;100.00
10988;BME280;5547;42.672;23.230;2023-11-21T05:38:31;92959.25;;;0.19;100.00
10988;BME280;5547;42.672;23.230;2023-11-21T05:41:31;92910.03;;;-0.17;100.00
10988;BME280;5547;42.672;23.230;2023-11-21T05:44:31;92965.03;;;0.09;100.00
10988;BME280;5547;42.672;23.230;2023-11-21T05:47:32;92973.63;;;0.29;100.00
10988;BME280;5547;42.672;23.230;2023-11-21T05:50:32;92971.28;;;0.24;100.00
10988;BME280;5547;42.672;23.230;2023-11-21T05:53:33;92934.78;;;0.08;100.00
10988;BME280;5547;42.672;23.230;2023-11-21T05:56:33;92961.38;;;0.33;100.00
10988;BME280;5547;42.672;23.230;2023-11-21T05:59:34;92968.63;;;0.44;100.00
10988;BME280;5547;42.672;23.230;2023-11-21T06:02:34;92919.91;;;0.12;100.00
10988;BME280;5547;42.672;23.230;2023-11-21T06:05:35;92963.59;;;0.54;100.00
10988;BME280;5547;42.672;23.230;2023-11-21T06:08:35;92972.25;;;0.58;100.00
10988;BME280;5547;42.672;23.230;2023-11-21T06:11:36;92978.34;;;0.66;100.00
10988;BME280;5547;42.672;23.230;2023-11-21T06:14:36;92981.84;;;0.74;100.00
10988;BME280;5547;42.672;23.230;2023-11-21T06:17:37;92929.88;;;0.49;100.00
10988;BME280;5547;42.672;23.230;2023-11-21T06:20:37;92987.34;;;0.92;100.00
10988;BME280;5547;42.672;23.230;2023-11-21T06:23:38;92989.97;;;0.92;100.00
10988;BME280;5547;42.672;23.230;2023-11-21T06:26:38;92989.44;;;1.05;100.00
10988;BME280;5547;42.672;23.230;2023-11-21T06:29:39;92909.44;;;0.58;100.00
10988;BME280;5547;42.672;23.230;2023-11-21T06:32:39;92984.69;;;1.11;100.00
10988;BME280;5547;42.672;23.230;2023-11-21T06:35:40;92996.69;;;1.39;100.00
10988;BME280;5547;42.672;23.230;2023-11-21T06:38:40;93001.03;;;1.58;100.00
10988;BME280;5547;42.672;23.230;2023-11-21T06:41:41;93009.25;;;1.83;100.00
10988;BME280;5547;42.672;23.230;2023-11-21T06:44:41;92986.13;;;1.92;100.00
10988;BME280;5547;42.672;23.230;2023-11-21T06:47:41;93016.59;;;2.38;100.00
10988;BME280;5547;42.672;23.230;2023-11-21T06:50:42;93000.16;;;2.44;100.00
10988;BME280;5547;42.672;23.230;2023-11-21T06:53:43;93018.31;;;2.60;100.00
10988;BME280;5547;42.672;23.230;2023-11-21T06:56:43;93004.41;;;2.56;100.00
10988;BME280;5547;42.672;23.230;2023-11-21T06:59:44;93008.91;;;2.56;100.00
10988;BME280;5547;42.672;23.230;2023-11-21T07:02:44;92999.53;;;2.55;100.00
10988;BME280;5547;42.672;23.230;2023-11-21T07:05:45;93006.81;;;2.35;100.00
10988;BME280;5547;42.672;23.230;2023-11-21T07:08:45;92995.09;;;2.25;100.00
10988;BME280;5547;42.672;23.230;2023-11-21T07:11:46;93005.09;;;2.49;100.00
10988;BME280;5547;42.672;23.230;2023-11-21T07:14:48;93008.50;;;2.53;100.00
10988;BME280;5547;42.672;23.230;2023-11-21T07:17:49;93003.31;;;2.57;100.00
10988;BME280;5547;42.672;23.230;2023-11-21T07:20:49;93012.72;;;2.62;100.00
10988;BME280;5547;42.672;23.230;2023-11-21T07:23:50;93009.44;;;2.72;100.00
10988;BME280;5547;42.672;23.230;2023-11-21T07:26:50;93014.00;;;2.75;100.00
10988;BME280;5547;42.672;23.230;2023-11-21T07:29:50;93019.69;;;2.84;100.00
10988;BME280;5547;42.672;23.230;2023-11-21T07:32:51;93020.97;;;3.01;100.00
10988;BME280;5547;42.672;23.230;2023-11-21T07:35:51;93018.03;;;3.13;100.00
10988;BME280;5547;42.672;23.230;2023-11-21T07:38:52;92956.53;;;2.70;100.00
10988;BME280;5547;42.672;23.230;2023-11-21T07:41:52;92992.81;;;3.02;100.00
10988;BME280;5547;42.672;23.230;2023-11-21T07:44:52;93006.13;;;3.27;100.00
10988;BME280;5547;42.672;23.230;2023-11-21T07:47:54;93011.69;;;3.14;100.00
10988;BME280;5547;42.672;23.230;2023-11-21T07:50:55;93008.03;;;3.26;100.00
10988;BME280;5547;42.672;23.230;2023-11-21T07:53:56;93001.28;;;3.32;100.00
10988;BME280;5547;42.672;23.230;2023-11-21T07:56:56;93010.81;;;3.55;100.00
10988;BME280;5547;42.672;23.230;2023-11-21T07:59:56;93005.31;;;3.74;100.00
10988;BME280;5547;42.672;23.230;2023-11-21T08:02:57;93002.34;;;3.83;100.00
10988;BME280;5547;42.672;23.230;2023-11-21T08:05:58;93009.25;;;4.09;100.00
10988;BME280;5547;42.672;23.230;2023-11-21T08:08:59;93012.22;;;4.04;100.00
10988;BME280;5547;42.672;23.230;2023-11-21T08:11:59;93013.69;;;3.98;100.00
10988;BME280;5547;42.672;23.230;2023-11-21T08:15:02;92989.63;;;3.99;100.00
10988;BME280;5547;42.672;23.230;2023-11-21T08:18:03;92993.56;;;4.49;100.00
10988;BME280;5547;42.672;23.230;2023-11-21T08:21:04;93008.25;;;4.53;100.00
10988;BME280;5547;42.672;23.230;2023-11-21T08:24:06;92963.44;;;4.28;100.00
10988;BME280;5547;42.672;23.230;2023-11-21T08:27:10;93013.19;;;4.73;100.00
10988;BME280;5547;42.672;23.230;2023-11-21T08:30:11;93011.34;;;4.98;100.00
10988;BME280;5547;42.672;23.230;2023-11-21T08:33:14;93009.81;;;4.94;100.00
10988;BME280;5547;42.672;23.230;2023-11-21T08:36:14;92987.63;;;4.98;100.00
10988;BME280;5547;42.672;23.230;2023-11-21T08:39:15;92994.41;;;4.99;100.00
10988;BME280;5547;42.672;23.230;2023-11-21T08:42:16;92929.63;;;4.91;100.00
10988;BME280;5547;42.672;23.230;2023-11-21T08:45:18;93001.91;;;5.47;100.00
10988;BME280;5547;42.672;23.230;2023-11-21T08:48:19;93009.81;;;5.47;100.00
10988;BME280;5547;42.672;23.230;2023-11-21T08:51:19;92991.38;;;5.44;100.00
10988;BME280;5547;42.672;23.230;2023-11-21T08:54:21;92995.84;;;5.72;100.00
10988;BME280;5547;42.672;23.230;2023-11-21T08:57:24;92987.53;;;5.99;100.00
10988;BME280;5547;42.672;23.230;2023-11-21T09:00:25;92985.13;;;6.26;100.00
10988;BME280;5547;42.672;23.230;2023-11-21T09:03:25;92967.53;;;5.80;100.00
10988;BME280;5547;42.672;23.230;2023-11-21T09:06:26;92960.38;;;5.84;100.00
10988;BME280;5547;42.672;23.230;2023-11-21T09:09:26;92934.34;;;5.89;100.00
10988;BME280;5547;42.672;23.230;2023-11-21T09:12:26;92956.53;;;6.14;100.00
10988;BME280;5547;42.672;23.230;2023-11-21T09:15:27;92893.00;;;5.58;100.00
10988;BME280;5547;42.672;23.230;2023-11-21T09:18:27;92926.31;;;6.18;100.00
10988;BME280;5547;42.672;23.230;2023-11-21T09:21:28;92939.31;;;6.58;100.00
10988;BME280;5547;42.672;23.230;2023-11-21T09:24:28;92876.66;;;5.99;100.00
10988;BME280;5547;42.672;23.230;2023-11-21T09:27:29;92918.88;;;6.65;100.00
10988;BME280;5547;42.672;23.230;2023-11-21T09:30:29;92916.31;;;6.55;100.00
10988;BME280;5547;42.672;23.230;2023-11-21T09:33:31;92879.91;;;6.24;100.00
10988;BME280;5547;42.672;23.230;2023-11-21T09:36:31;92892.81;;;6.67;100.00
10988;BME280;5547;42.672;23.230;2023-11-21T09:39:34;92882.50;;;6.31;100.00
10988;BME280;5547;42.672;23.230;2023-11-21T09:42:39;92896.00;;;6.44;100.00
10988;BME280;5547;42.672;23.230;2023-11-21T09:45:46;92893.06;;;6.31;100.00
10988;BME280;5547;42.672;23.230;2023-11-21T09:48:50;92870.31;;;6.48;100.00
10988;BME280;5547;42.672;23.230;2023-11-21T09:51:55;92861.16;;;6.60;100.00
10988;BME280;5547;42.672;23.230;2023-11-21T09:54:56;92836.31;;;6.50;100.00
10988;BME280;5547;42.672;23.230;2023-11-21T09:58:00;92853.53;;;6.69;100.00
10988;BME280;5547;42.672;23.230;2023-11-21T10:01:01;92827.72;;;6.43;100.00
10988;BME280;5547;42.672;23.230;2023-11-21T10:04:03;92850.13;;;6.72;100.00
10988;BME280;5547;42.672;23.230;2023-11-21T10:07:04;92856.63;;;7.06;100.00
10988;BME280;5547;42.672;23.230;2023-11-21T10:10:09;92850.00;;;7.25;100.00
10988;BME280;5547;42.672;23.230;2023-11-21T10:13:11;92835.16;;;7.38;100.00
10988;BME280;5547;42.672;23.230;2023-11-21T10:16:15;92814.69;;;7.42;100.00
10988;BME280;5547;42.672;23.230;2023-11-21T10:19:16;92814.28;;;7.44;100.00
10988;BME280;5547;42.672;23.230;2023-11-21T10:22:17;92824.03;;;7.50;100.00
10988;BME280;5547;42.672;23.230;2023-11-21T10:25:19;92833.31;;;7.66;100.00
10988;BME280;5547;42.672;23.230;2023-11-21T10:28:20;92828.56;;;7.84;100.00
10988;BME280;5547;42.672;23.230;2023-11-21T10:31:21;92822.00;;;7.92;100.00
10988;BME280;5547;42.672;23.230;2023-11-21T10:34:21;92798.09;;;7.69;100.00
10988;BME280;5547;42.672;23.230;2023-11-21T10:37:22;92766.72;;;7.40;100.00
10988;BME280;5547;42.672;23.230;2023-11-21T10:40:22;92816.44;;;8.14;100.00
10988;BME280;5547;42.672;23.230;2023-11-21T10:43:25;92839.34;;;7.97;100.00
10988;BME280;5547;42.672;23.230;2023-11-21T10:46:27;92802.69;;;7.95;100.00
10988;BME280;5547;42.672;23.230;2023-11-21T10:49:27;92815.94;;;8.23;100.00
10988;BME280;5547;42.672;23.230;2023-11-21T10:52:28;92794.78;;;7.92;100.00
10988;BME280;5547;42.672;23.230;2023-11-21T10:55:28;92821.97;;;7.96;100.00
10988;BME280;5547;42.672;23.230;2023-11-21T10:58:29;92817.69;;;7.75;100.00
10988;BME280;5547;42.672;23.230;2023-11-21T11:01:30;92811.50;;;7.85;100.00
10988;BME280;5547;42.672;23.230;2023-11-21T11:04:31;92811.66;;;7.74;100.00
10988;BME280;5547;42.672;23.230;2023-11-21T11:07:34;92780.41;;;7.62;100.00
10988;BME280;5547;42.672;23.230;2023-11-21T11:10:35;92802.09;;;7.53;100.00
10988;BME280;5547;42.672;23.230;2023-11-21T11:13:37;92770.09;;;7.41;100.00
10988;BME280;5547;42.672;23.230;2023-11-21T11:16:39;92727.22;;;7.26;100.00
10988;BME280;5547;42.672;23.230;2023-11-21T11:19:47;92743.75;;;7.33;100.00
10988;BME280;5547;42.672;23.230;2023-11-21T11:23:10;92773.31;;;7.55;100.00
10988;BME280;5547;42.672;23.230;2023-11-21T11:26:28;92740.19;;;7.44;100.00
10988;BME280;5547;42.672;23.230;2023-11-21T11:29:38;92764.75;;;7.75;100.00
10988;BME280;5547;42.672;23.230;2023-11-21T11:33:10;92734.91;;;7.44;100.00
10988;BME280;5547;42.672;23.230;2023-11-21T11:36:37;92764.16;;;7.64;100.00
10988;BME280;5547;42.672;23.230;2023-11-21T11:39:42;92775.25;;;7.82;100.00
10988;BME280;5547;42.672;23.230;2023-11-21T11:42:58;92743.81;;;7.26;100.00
10988;BME280;5547;42.672;23.230;2023-11-21T11:46:03;92774.97;;;7.76;100.00
10988;BME280;5547;42.672;23.230;2023-11-21T11:49:04;92739.06;;;7.45;100.00
10988;BME280;5547;42.672;23.230;2023-11-21T11:52:33;92768.25;;;7.68;100.00
10988;BME280;5547;42.672;23.230;2023-11-21T11:55:36;92735.00;;;7.36;100.00
10988;BME280;5547;42.672;23.230;2023-11-21T11:58:38;92740.28;;;7.36;100.00
10988;BME280;5547;42.672;23.230;2023-11-21T12:01:45;92770.53;;;7.35;100.00
10988;BME280;5547;42.672;23.230;2023-11-21T12:04:46;92770.94;;;7.34;100.00
10988;BME280;5547;42.672;23.230;2023-11-21T12:07:51;92765.50;;;7.14;100.00
10988;BME280;5547;42.672;23.230;2023-11-21T12:10:54;92741.19;;;6.92;100.00
10988;BME280;5547;42.672;23.230;2023-11-21T12:13:58;92762.06;;;6.83;100.00
10988;BME280;5547;42.672;23.230;2023-11-21T12:17:00;92770.50;;;6.67;100.00
10988;BME280;5547;42.672;23.230;2023-11-21T12:20:04;92648.63;;;6.23;100.00
10988;BME280;5547;42.672;23.230;2023-11-21T12:23:06;92730.91;;;6.63;100.00
10988;BME280;5547;42.672;23.230;2023-11-21T12:26:06;92751.81;;;6.47;100.00
10988;BME280;5547;42.672;23.230;2023-11-21T12:29:08;92752.63;;;6.40;100.00
10988;BME280;5547;42.672;23.230;2023-11-21T12:32:09;92748.16;;;6.34;100.00
10988;BME280;5547;42.672;23.230;2023-11-21T12:35:11;92763.72;;;6.24;100.00
10988;BME280;5547;42.672;23.230;2023-11-21T12:38:12;92696.41;;;5.95;100.00
10988;BME280;5547;42.672;23.230;2023-11-21T12:41:12;92732.41;;;6.23;100.00
10988;BME280;5547;42.672;23.230;2023-11-21T12:44:12;92737.16;;;6.39;100.00
10988;BME280;5547;42.672;23.230;2023-11-21T12:47:19;92731.59;;;6.26;100.00
10988;BME280;5547;42.672;23.230;2023-11-21T12:50:25;92688.81;;;6.00;100.00
10988;BME280;5547;42.672;23.230;2023-11-21T12:53:28;92723.72;;;6.22;100.00
10988;BME280;5547;42.672;23.230;2023-11-21T12:56:39;92719.28;;;6.12;100.00
10988;BME280;5547;42.672;23.230;2023-11-21T12:59:40;92715.47;;;6.17;100.00
10988;BME280;5547;42.672;23.230;2023-11-21T13:02:43;92685.81;;;5.98;100.00
10988;BME280;5547;42.672;23.230;2023-11-21T13:05:46;92629.09;;;5.72;100.00
10988;BME280;5547;42.672;23.230;2023-11-21T13:08:50;92646.31;;;5.84;100.00
10988;BME280;5547;42.672;23.230;2023-11-21T13:11:59;92689.91;;;6.10;100.00
10988;BME280;5547;42.672;23.230;2023-11-21T13:15:05;92688.25;;;6.23;100.00
10988;BME280;5547;42.672;23.230;2023-11-21T13:18:07;92708.91;;;6.36;100.00
10988;BME280;5547;42.672;23.230;2023-11-21T13:21:08;92716.03;;;6.39;100.00
10988;BME280;5547;42.672;23.230;2023-11-21T13:24:15;92704.81;;;6.27;100.00
10988;BME280;5547;42.672;23.230;2023-11-21T13:27:18;92707.47;;;6.27;100.00
10988;BME280;5547;42.672;23.230;2023-11-21T13:30:18;92689.03;;;6.20;100.00
10988;BME280;5547;42.672;23.230;2023-11-21T13:33:23;92681.47;;;6.22;100.00
10988;BME280;5547;42.672;23.230;2023-11-21T13:36:27;92678.41;;;6.27;100.00
10988;BME280;5547;42.672;23.230;2023-11-21T13:39:31;92680.19;;;6.38;100.00
10988;BME280;5547;42.672;23.230;2023-11-21T13:42:32;92680.19;;;6.38;100.00
10988;BME280;5547;42.672;23.230;2023-11-21T13:45:33;92670.53;;;6.24;100.00
10988;BME280;5547;42.672;23.230;2023-11-21T13:48:34;92676.84;;;6.34;100.00
10988;BME280;5547;42.672;23.230;2023-11-21T13:51:42;92685.47;;;6.38;100.00
10988;BME280;5547;42.672;23.230;2023-11-21T13:54:45;92670.03;;;6.36;100.00
10988;BME280;5547;42.672;23.230;2023-11-21T13:57:45;92658.03;;;6.28;100.00
10988;BME280;5547;42.672;23.230;2023-11-21T14:00:49;92647.53;;;6.21;100.00
10988;BME280;5547;42.672;23.230;2023-11-21T14:04:00;92642.00;;;6.08;100.00
10988;BME280;5547;42.672;23.230;2023-11-21T14:07:16;92668.59;;;6.28;100.00
10988;BME280;5547;42.672;23.230;2023-11-21T14:10:26;92673.19;;;6.24;100.00
10988;BME280;5547;42.672;23.230;2023-11-21T14:13:26;92668.34;;;6.15;100.00
10988;BME280;5547;42.672;23.230;2023-11-21T14:16:27;92666.53;;;6.05;100.00
10988;BME280;5547;42.672;23.230;2023-11-21T14:19:27;92694.97;;;6.31;100.00
10988;BME280;5547;42.672;23.230;2023-11-21T14:22:32;92691.69;;;6.20;100.00
10988;BME280;5547;42.672;23.230;2023-11-21T14:25:34;92623.00;;;5.75;100.00
10988;BME280;5547;42.672;23.230;2023-11-21T14:28:34;92634.97;;;5.90;100.00
10988;BME280;5547;42.672;23.230;2023-11-21T14:31:36;92672.16;;;6.10;100.00
10988;BME280;5547;42.672;23.230;2023-11-21T14:34:36;92653.44;;;5.94;100.00
10988;BME280;5547;42.672;23.230;2023-11-21T14:37:37;92678.94;;;6.12;100.00
10988;BME280;5547;42.672;23.230;2023-11-21T14:40:37;92683.81;;;6.13;100.00
10988;BME280;5547;42.672;23.230;2023-11-21T14:43:38;92672.81;;;6.22;100.00
10988;BME280;5547;42.672;23.230;2023-11-21T14:46:39;92653.22;;;6.19;100.00
10988;BME280;5547;42.672;23.230;2023-11-21T14:49:45;92641.38;;;5.89;100.00
10988;BME280;5547;42.672;23.230;2023-11-21T14:53:10;92662.72;;;6.09;100.00
10988;BME280;5547;42.672;23.230;2023-11-21T14:56:12;92582.28;;;5.31;100.00
10988;BME280;5547;42.672;23.230;2023-11-21T14:59:21;92676.72;;;6.03;100.00
10988;BME280;5547;42.672;23.230;2023-11-21T15:02:21;92656.78;;;5.98;100.00
10988;BME280;5547;42.672;23.230;2023-11-21T15:05:42;92664.00;;;5.90;100.00
10988;BME280;5547;42.672;23.230;2023-11-21T15:08:42;92668.59;;;5.79;100.00
10988;BME280;5547;42.672;23.230;2023-11-21T15:11:43;92629.63;;;5.53;100.00
10988;BME280;5547;42.672;23.230;2023-11-21T15:14:45;92663.00;;;5.70;100.00
10988;BME280;5547;42.672;23.230;2023-11-21T15:17:47;92652.88;;;5.65;100.00
10988;BME280;5547;42.672;23.230;2023-11-21T15:20:47;92639.91;;;5.36;100.00
10988;BME280;5547;42.672;23.230;2023-11-21T15:23:48;92633.53;;;5.30;100.00
10988;BME280;5547;42.672;23.230;2023-11-21T15:26:48;92636.13;;;5.34;100.00
10988;BME280;5547;42.672;23.230;2023-11-21T15:29:49;92649.28;;;5.41;100.00
10988;BME280;5547;42.672;23.230;2023-11-21T15:32:51;92619.25;;;5.24;100.00
10988;BME280;5547;42.672;23.230;2023-11-21T15:35:53;92614.03;;;5.17;100.00
10988;BME280;5547;42.672;23.230;2023-11-21T15:38:54;92606.63;;;4.97;100.00
10988;BME280;5547;42.672;23.230;2023-11-21T15:41:55;92636.63;;;5.14;100.00
10988;BME280;5547;42.672;23.230;2023-11-21T15:44:55;92642.66;;;5.18;100.00
10988;BME280;5547;42.672;23.230;2023-11-21T15:47:56;92631.38;;;5.14;100.00
10988;BME280;5547;42.672;23.230;2023-11-21T15:50:58;92611.81;;;5.12;100.00
10988;BME280;5547;42.672;23.230;2023-11-21T15:53:59;92581.75;;;4.98;100.00
10988;BME280;5547;42.672;23.230;2023-11-21T15:56:59;92628.25;;;5.26;100.00
10988;BME280;5547;42.672;23.230;2023-11-21T16:00:00;92628.00;;;5.10;100.00